New Orleans, LA (70145)

2:39 AM CDT on October 21, 2014 (GMT -0500)
Gentilly Terrace | Change Station
CLOSE
Current Station
Personal Weather Station
Location: New Orleans, LA
Elevation: 15 ft
Nearby Weather Stations

Elev 15 ft 30.00 °N, 90.05 °W | Updated 13 seconds ago

Clear
Clear
64.9 °F
Feels Like 64.9 °F
N
0.0
Wind Variable Wind from NE
Gusts 2.0 mph

Today
High -- | Low -- °F
--% Chance of Precip.
Yesterday
High -- | Low -- °F
Precip. -- in
7:05 AM 6:23 PM
Waning Crescent, 7% visible
Pressure 29.99 in
Visibility 10.0 miles
Clouds Clear
Dew Point 57 °F
Humidity 76%
Rainfall 0.00 in
Snow Depth Not available.
UV 0 out of 12
Pollen 3.20 out of 12
Ozone Good
PM2.5 Moderate
Flu Activity Sporadic
METAR KNEW 210653Z AUTO 05010KT 10SM CLR 22/13 A3001 RMK AO2 SLP154 T02170133 TSNO

More Conditions Fewer Conditions

Pressure 29.99 in
Visibility 10.0 miles
Clouds Clear
Dew Point 57 °F
Humidity 76%
Rainfall 0.00 in
Snow Depth Not available.
UV 0 out of 12
Pollen 3.20 out of 12
Ozone Good
PM2.5 Moderate
Flu Activity Sporadic
METAR KNEW 210653Z AUTO 05010KT 10SM CLR 22/13 A3001 RMK AO2 SLP154 T02170133 TSNO

More Conditions Fewer Conditions

10-Day Weather Forecast

Almanac

Astronomy

Oct. 21, 2014 Rise Set
Actual Time 7:05 AM CDT 6:23 PM CDT
Civil Twilight 6:41 AM CDT 6:47 PM CDT
Nautical Twilight 6:13 AM CDT 7:15 PM CDT
Astronomical Twilight 5:45 AM CDT 7:42 PM CDT
Moon 4:59 AM CDT 5:09 PM CDT
Length of Visible Light 12h 05m
Length of Day
11h 17m
Tomorrow will be 1m 41s shorter.
Waning Crescent, 7% of the Moon is Illuminated
Today
Waning Crescent
Oct 23
New
Oct 30
First Quarter
Nov 6
Full
Nov 14
Last Quarter

Today's Extremes

State Highs State Lows

Community

WunderPhotos

Upload Photos

1,763,619 photos uploaded!

Nearby

Air Quality

  Air Quality AQ Index Pollutant
Yesterday Moderate
PM2.5
Yesterday Good
OZONE
Current Moderate
PM2.5
Current Good
OZONE
Tuesday Moderate
PM2.5
Tuesday Moderate
OZONE
Wednesday Moderate
OZONE
Wednesday Moderate
PM2.5

Snow Depth

Station Depth Elevation
No new snow has been reported.

Earthquake Activity

City Distance Mag. Time & Date
No recent earthquake activity has been reported nearby.
Minimum magnitude displayed is 2.5.

Coastal Water Temperatures

Place Temperature
New Canal, LA 72.0 °F
Shell Beach, LA 69.1 °F
Bayou Gauche, LA 73.9 °F

Nearby Weather Stations